createdAt,value
2022-08-19T00:01:30.754Z,98865.50
2022-08-19T00:04:02.027Z,98875.56
2022-08-19T00:06:29.839Z,98869.22
2022-08-19T00:08:57.815Z,98883.81
2022-08-19T00:11:25.693Z,98879.81
2022-08-19T00:13:53.650Z,98882.66
2022-08-19T00:16:26.224Z,98872.28
2022-08-19T00:18:54.610Z,98880.38
2022-08-19T00:21:21.684Z,98879.16
2022-08-19T00:23:48.561Z,98877.53
2022-08-19T00:26:15.795Z,98875.97
2022-08-19T00:28:42.674Z,98882.44
2022-08-19T00:31:09.726Z,98867.63
2022-08-19T00:33:36.928Z,98875.25
2022-08-19T00:36:05.685Z,98864.06
2022-08-19T00:38:36.754Z,98865.72
2022-08-19T00:41:04.701Z,98872.94
2022-08-19T00:43:32.015Z,98871.75
2022-08-19T00:46:00.255Z,98870.22
2022-08-19T00:48:27.532Z,98879.91
2022-08-19T00:50:56.713Z,98870.72
2022-08-19T00:53:25.402Z,98875.16
2022-08-19T00:55:54.376Z,98884.84
2022-08-19T00:58:23.312Z,98881.19
2022-08-19T01:00:50.523Z,98893.25
2022-08-19T01:03:19.570Z,98883.28
2022-08-19T01:05:48.498Z,98897.34
2022-08-19T01:08:16.678Z,98888.16
2022-08-19T01:10:48.288Z,98878.16
2022-08-19T01:13:16.073Z,98886.25
2022-08-19T01:15:44.547Z,98880.25
2022-08-19T01:18:14.083Z,98882.28
2022-08-19T01:20:42.358Z,98873.44
2022-08-19T01:23:09.867Z,98877.06
2022-08-19T01:25:42.056Z,98885.91
2022-08-19T01:28:10.869Z,98883.50
2022-08-19T01:30:38.690Z,98883.09
2022-08-19T01:33:07.066Z,98878.31
2022-08-19T01:35:35.971Z,98873.53
2022-08-19T01:38:08.422Z,98873.56
2022-08-19T01:40:37.782Z,98873.19
2022-08-19T01:43:05.387Z,98872.00
2022-08-19T01:45:34.080Z,98875.22
2022-08-19T01:48:02.498Z,98873.66
2022-08-19T01:50:31.383Z,98882.13
2022-08-19T01:53:03.643Z,98887.78
2022-08-19T01:55:34.323Z,98883.81
2022-08-19T01:58:03.112Z,98880.63
2022-08-19T02:00:31.737Z,98882.66
2022-08-19T02:02:58.628Z,98881.09
2022-08-19T02:05:25.831Z,98881.53
2022-08-19T02:07:52.886Z,98885.53
2022-08-19T02:10:22.061Z,98884.34
2022-08-19T02:12:50.539Z,98884.38
2022-08-19T02:15:19.902Z,98886.03
2022-08-19T02:17:47.523Z,98880.41
2022-08-19T02:20:14.845Z,98885.22
2022-08-19T02:22:45.261Z,98897.25
2022-08-19T02:25:13.603Z,98898.84
2022-08-19T02:27:40.976Z,98902.47
2022-08-19T02:30:09.508Z,98906.47
2022-08-19T02:32:44.748Z,98914.50
2022-08-19T02:35:12.838Z,98910.91
2022-08-19T02:37:58.616Z,98911.72
2022-08-19T02:40:25.808Z,98922.16
2022-08-19T02:42:52.905Z,98912.97
2022-08-19T02:45:20.346Z,98923.00
2022-08-19T02:47:47.662Z,98918.19
2022-08-19T02:50:15.665Z,98917.44
2022-08-19T02:52:42.729Z,98917.44
2022-08-19T02:55:09.942Z,98920.63
2022-08-19T02:57:37.861Z,98925.84
2022-08-19T03:00:06.418Z,98922.66
2022-08-19T03:02:33.546Z,98923.06
2022-08-19T03:05:00.508Z,98919.44
2022-08-19T03:07:27.739Z,98922.66
2022-08-19T03:09:54.613Z,98915.03
2022-08-19T03:12:21.789Z,98923.84
2022-08-19T03:14:48.879Z,98919.06
2022-08-19T03:17:16.110Z,98929.81
2022-08-19T03:19:44.218Z,98926.63
2022-08-19T03:22:11.604Z,98923.81
2022-08-19T03:24:39.244Z,98929.03
2022-08-19T03:27:06.600Z,98935.03
2022-08-19T03:29:33.713Z,98927.81
2022-08-19T03:32:10.581Z,98929.03
2022-08-19T03:34:57.998Z,98936.63
2022-08-19T03:37:25.188Z,98935.88
2022-08-19T03:39:53.073Z,98925.81
2022-08-19T03:42:32.992Z,98948.25
2022-08-19T03:45:08.557Z,98948.63
2022-08-19T03:47:35.587Z,98956.63
2022-08-19T03:50:03.167Z,98949.44
2022-08-19T03:52:30.918Z,98955.03
2022-08-19T03:54:58.035Z,98950.22
2022-08-19T03:57:31.617Z,98955.03
2022-08-19T04:00:03.790Z,98946.63
2022-08-19T04:02:40.469Z,98950.22
2022-08-19T04:05:09.311Z,98952.63
2022-08-19T04:07:36.634Z,98959.03
2022-08-19T04:10:04.564Z,98957.88
2022-08-19T04:12:31.725Z,98953.47
2022-08-19T04:14:59.434Z,98958.28
2022-08-19T04:17:27.102Z,98959.88
2022-08-19T04:19:54.142Z,98963.06
2022-08-19T04:22:21.599Z,98966.28
2022-08-19T04:24:48.901Z,98968.63
2022-08-19T04:27:18.114Z,98975.03
2022-08-19T04:30:20.437Z,98975.84
2022-08-19T04:32:47.686Z,98985.03
2022-08-19T04:35:17.630Z,98981.03
2022-08-19T04:37:45.702Z,98985.84
2022-08-19T04:40:31.094Z,98987.84
2022-08-19T04:42:58.401Z,98985.81
2022-08-19T04:45:25.449Z,98979.81
2022-08-19T04:47:58.739Z,98983.38
2022-08-19T04:50:34.843Z,98980.97
2022-08-19T04:53:04.863Z,98986.56
2022-08-19T04:55:35.390Z,98984.56
2022-08-19T04:58:05.179Z,98983.69
2022-08-19T05:00:32.145Z,98983.28
2022-08-19T05:03:03.287Z,98988.47
2022-08-19T05:05:44.592Z,98984.41
2022-08-19T05:08:15.219Z,98981.16
2022-08-19T05:10:42.670Z,98983.56
2022-08-19T05:13:11.079Z,98992.72
2022-08-19T05:15:39.386Z,98987.91
2022-08-19T05:18:25.025Z,98999.09
2022-08-19T05:21:10.718Z,98986.59
2022-08-19T05:23:38.185Z,98988.91
2022-08-19T05:26:05.129Z,98993.66
2022-08-19T05:28:32.120Z,98990.34
2022-08-19T05:30:59.617Z,98985.06
2022-08-19T05:33:26.753Z,98991.41
2022-08-19T05:35:53.879Z,98988.09
2022-08-19T05:38:21.347Z,98985.94
2022-08-19T05:40:49.155Z,98989.78
2022-08-19T05:43:19.247Z,98978.88
2022-08-19T05:45:46.473Z,98985.16
2022-08-19T05:48:13.993Z,98980.94
2022-08-19T05:50:42.078Z,98986.34
2022-08-19T05:53:10.006Z,98984.13
2022-08-19T05:55:39.125Z,98972.66
2022-08-19T05:58:08.589Z,98977.38
2022-08-19T06:00:37.043Z,98991.69
2022-08-19T06:03:12.485Z,98989.06
2022-08-19T06:05:42.248Z,98984.97
2022-08-19T06:08:19.490Z,98991.69
2022-08-19T06:10:46.800Z,98984.66
2022-08-19T06:13:13.845Z,98984.84
2022-08-19T06:15:45.376Z,98979.06
2022-08-19T06:18:13.042Z,98984.94
2022-08-19T06:20:55.583Z,98977.94
2022-08-19T06:23:24.150Z,98990.13
2022-08-19T06:25:51.586Z,98987.88
2022-08-19T06:28:19.153Z,98980.00
2022-08-19T06:30:46.624Z,98980.47
2022-08-19T06:33:13.681Z,98976.63
2022-08-19T06:35:41.629Z,98981.56
2022-08-19T06:38:10.427Z,98973.53
2022-08-19T06:40:39.247Z,98975.34
2022-08-19T06:43:08.547Z,98968.66
2022-08-19T06:45:39.446Z,98967.69
2022-08-19T06:48:08.023Z,98971.50
2022-08-19T06:50:39.363Z,98968.34
2022-08-19T06:53:06.996Z,98968.44
2022-08-19T06:55:34.016Z,98970.00
2022-08-19T06:58:04.615Z,98957.63
2022-08-19T07:00:33.655Z,98960.28
2022-08-19T07:03:06.005Z,98964.16
2022-08-19T07:05:40.143Z,98953.25
2022-08-19T07:08:12.290Z,98968.00
2022-08-19T07:10:43.629Z,98961.53
2022-08-19T07:13:10.759Z,98960.13
2022-08-19T07:15:39.731Z,98958.00
2022-08-19T07:18:07.121Z,98961.28
2022-08-19T07:20:40.152Z,98968.00
2022-08-19T07:23:09.752Z,98968.81
2022-08-19T07:25:44.525Z,98966.78
2022-08-19T07:28:14.357Z,98967.72
2022-08-19T07:30:51.717Z,98971.59
2022-08-19T07:33:20.433Z,98964.78
2022-08-19T07:35:47.372Z,98968.13
2022-08-19T07:38:15.893Z,98967.78
2022-08-19T07:40:44.513Z,98972.56
2022-08-19T07:43:14.186Z,98980.50
2022-08-19T07:45:45.595Z,98966.88
2022-08-19T07:48:12.537Z,98971.41
2022-08-19T07:50:40.025Z,98967.56
2022-08-19T07:53:07.136Z,98967.00
2022-08-19T07:55:41.866Z,98965.09
2022-08-19T07:58:11.428Z,98969.38
2022-08-19T08:00:38.511Z,98956.31
2022-08-19T08:03:05.819Z,98959.41
2022-08-19T08:05:51.354Z,98963.00
2022-08-19T08:08:36.717Z,98961.53
2022-08-19T08:11:07.703Z,98971.50
2022-08-19T08:13:39.092Z,98959.91
2022-08-19T08:16:10.204Z,98957.31
2022-08-19T08:18:43.350Z,98953.25
2022-08-19T08:21:18.175Z,98947.56
2022-08-19T08:23:45.498Z,98950.09
2022-08-19T08:26:14.249Z,98952.59
2022-08-19T08:28:43.142Z,98943.72
2022-08-19T08:31:15.760Z,98943.25
2022-08-19T08:33:43.405Z,98943.34
2022-08-19T08:36:11.990Z,98946.22
2022-08-19T08:38:40.605Z,98942.56
2022-08-19T08:41:20.782Z,98945.88
2022-08-19T08:43:52.024Z,98941.97
2022-08-19T08:46:31.322Z,98936.34
2022-08-19T08:49:04.977Z,98943.69
2022-08-19T08:54:13.754Z,98943.16
2022-08-19T08:56:41.848Z,98940.72
2022-08-19T08:59:18.202Z,98930.38
2022-08-19T09:01:45.538Z,98932.19
2022-08-19T09:04:13.544Z,98938.63
2022-08-19T09:06:55.872Z,98935.97
2022-08-19T09:09:23.282Z,98934.19
2022-08-19T09:12:02.234Z,98946.72
2022-08-19T09:14:51.238Z,98925.81
2022-08-19T09:17:22.074Z,98923.75
2022-08-19T09:19:54.137Z,98926.66
2022-08-19T09:22:25.597Z,98929.91
2022-08-19T09:24:53.564Z,98927.19
2022-08-19T09:27:22.031Z,98931.44
2022-08-19T09:30:10.787Z,98928.59
2022-08-19T09:32:42.807Z,98933.03
2022-08-19T09:35:10.390Z,98930.81
2022-08-19T09:37:37.731Z,98923.22
2022-08-19T09:40:08.273Z,98924.47
2022-08-19T09:42:39.443Z,98924.53
2022-08-19T09:45:22.335Z,98915.81
2022-08-19T09:47:50.497Z,98925.69
2022-08-19T09:50:19.235Z,98923.59
2022-08-19T09:52:54.048Z,98914.50
2022-08-19T09:55:24.809Z,98916.91
2022-08-19T09:58:00.503Z,98924.19
2022-08-19T10:00:28.153Z,98916.25
2022-08-19T10:02:55.189Z,98918.28
2022-08-19T10:05:42.167Z,98903.59
2022-08-19T10:08:13.004Z,98920.56
2022-08-19T10:10:46.264Z,98915.66
2022-08-19T10:13:16.106Z,98917.09
2022-08-19T10:15:47.245Z,98917.75
2022-08-19T10:18:15.680Z,98910.94
2022-08-19T10:20:43.365Z,98921.19
2022-08-19T10:23:10.693Z,98920.19
2022-08-19T10:25:38.654Z,98916.59
2022-08-19T10:28:12.877Z,98907.88
2022-08-19T10:30:40.833Z,98907.25
2022-08-19T10:33:11.110Z,98909.03
2022-08-19T10:35:56.297Z,98920.88
2022-08-19T10:38:31.673Z,98908.69
2022-08-19T10:40:59.416Z,98913.97
2022-08-19T10:43:26.438Z,98901.44
2022-08-19T10:45:56.607Z,98906.84
2022-08-19T10:48:23.733Z,98909.91
2022-08-19T10:51:09.597Z,98903.56
2022-08-19T10:53:36.718Z,98902.63
2022-08-19T10:56:22.279Z,98905.31
2022-08-19T10:58:50.023Z,98900.69
2022-08-19T11:01:17.161Z,98908.19
2022-08-19T11:03:46.233Z,98895.47
2022-08-19T11:06:20.401Z,98890.44
2022-08-19T11:08:47.662Z,98894.00
2022-08-19T11:11:14.620Z,98888.78
2022-08-19T11:13:42.630Z,98898.78
2022-08-19T11:16:14.903Z,98899.63
2022-08-19T11:18:44.089Z,98895.28
2022-08-19T11:21:18.252Z,98901.47
2022-08-19T11:23:46.317Z,98894.09
2022-08-19T11:26:14.165Z,98882.72
2022-08-19T11:28:41.388Z,98888.25
2022-08-19T11:31:15.878Z,98884.78
2022-08-19T11:33:47.604Z,98868.31
2022-08-19T11:36:16.568Z,98869.22
2022-08-19T11:38:43.583Z,98875.09
2022-08-19T11:41:10.627Z,98865.59
2022-08-19T11:43:38.098Z,98874.81
2022-08-19T11:46:08.090Z,98883.34
2022-08-19T11:48:35.903Z,98874.81
2022-08-19T11:51:10.514Z,98868.75
2022-08-19T11:53:37.961Z,98861.97
2022-08-19T11:56:05.905Z,98857.97
2022-08-19T11:58:32.989Z,98853.56
2022-08-19T12:01:00.086Z,98847.97
2022-08-19T12:03:27.210Z,98855.69
2022-08-19T12:05:54.629Z,98851.06
2022-08-19T12:08:21.955Z,98855.59
2022-08-19T12:10:49.045Z,98853.38
2022-08-19T12:13:19.689Z,98851.91
2022-08-19T12:15:49.148Z,98843.41
2022-08-19T12:18:16.322Z,98848.59
2022-08-19T12:20:44.128Z,98850.09
2022-08-19T12:23:11.693Z,98846.31
2022-08-19T12:25:49.416Z,98844.56
2022-08-19T12:28:26.323Z,98834.53
2022-08-19T12:30:53.540Z,98835.28
2022-08-19T12:33:20.685Z,98844.47
2022-08-19T12:35:48.876Z,98839.16
2022-08-19T12:38:17.449Z,98831.97
2022-08-19T12:40:48.182Z,98832.44
2022-08-19T12:43:16.995Z,98831.94
2022-08-19T12:45:44.652Z,98834.13
2022-08-19T12:48:32.990Z,98830.13
2022-08-19T12:51:02.954Z,98831.81
2022-08-19T12:53:30.234Z,98839.31
2022-08-19T12:55:58.143Z,98821.69
2022-08-19T12:58:27.374Z,98820.91
2022-08-19T13:00:54.808Z,98825.63
2022-08-19T13:03:23.574Z,98826.63
2022-08-19T13:05:52.321Z,98826.78
2022-08-19T13:08:19.463Z,98820.84
2022-08-19T13:10:46.555Z,98821.16
2022-08-19T13:13:13.655Z,98823.50
2022-08-19T13:15:42.204Z,98826.84
2022-08-19T13:18:11.339Z,98826.19
2022-08-19T13:20:38.819Z,98823.13
2022-08-19T13:23:07.042Z,98819.41
2022-08-19T13:25:34.341Z,98815.44
2022-08-19T13:28:01.349Z,98816.25
2022-08-19T13:30:47.551Z,98806.00
2022-08-19T13:33:17.715Z,98803.44
2022-08-19T13:35:47.130Z,98799.47
2022-08-19T13:38:15.173Z,98810.22
2022-08-19T13:41:26.076Z,98799.81
2022-08-19T13:43:53.424Z,98805.78
2022-08-19T13:46:21.382Z,98794.94
2022-08-19T13:48:51.822Z,98796.44
2022-08-19T13:51:19.382Z,98796.00
2022-08-19T13:53:48.212Z,98801.91
2022-08-19T13:56:20.178Z,98797.28
2022-08-19T13:58:50.096Z,98797.09
2022-08-19T14:01:21.911Z,98792.78
2022-08-19T14:03:51.754Z,98797.19
2022-08-19T14:06:19.499Z,98797.59
2022-08-19T14:08:47.286Z,98792.78
2022-08-19T14:11:14.660Z,98787.25
2022-08-19T14:13:41.834Z,98796.91
2022-08-19T14:16:13.013Z,98787.69
2022-08-19T14:18:41.167Z,98783.78
2022-08-19T14:21:08.565Z,98782.31
2022-08-19T14:23:37.227Z,98775.59
2022-08-19T14:26:12.722Z,98776.88
2022-08-19T14:28:42.062Z,98784.50
2022-08-19T14:31:13.852Z,98788.44
2022-08-19T14:33:41.647Z,98780.94
2022-08-19T14:36:08.725Z,98777.50
2022-08-19T14:38:36.947Z,98774.34
2022-08-19T14:41:23.608Z,98775.53
2022-08-19T14:43:52.902Z,98778.88
2022-08-19T14:46:21.663Z,98778.16
2022-08-19T14:48:50.599Z,98782.22
2022-08-19T14:51:20.108Z,98778.38
2022-08-19T14:53:49.681Z,98786.75
2022-08-19T14:56:18.944Z,98787.66
2022-08-19T14:58:46.402Z,98783.81
2022-08-19T15:01:14.006Z,98781.03
2022-08-19T15:03:44.076Z,98775.72
2022-08-19T15:06:12.797Z,98783.41
2022-08-19T15:08:42.144Z,98781.13
2022-08-19T15:11:15.526Z,98789.72
2022-08-19T15:13:42.951Z,98787.06
2022-08-19T15:16:18.101Z,98778.28
2022-08-19T15:18:46.723Z,98779.25
2022-08-19T15:21:16.087Z,98772.75
2022-08-19T15:23:45.413Z,98779.03
2022-08-19T15:26:15.987Z,98777.75
2022-08-19T15:28:43.333Z,98776.09
2022-08-19T15:31:25.059Z,98771.47
2022-08-19T15:33:58.840Z,98775.28
2022-08-19T15:36:27.222Z,98769.75
2022-08-19T15:38:55.729Z,98770.06
2022-08-19T15:41:24.445Z,98775.94
2022-08-19T15:43:57.049Z,98764.13
2022-08-19T15:46:25.446Z,98765.19
2022-08-19T15:48:57.170Z,98766.72
2022-08-19T15:51:25.058Z,98762.00
2022-08-19T15:53:52.102Z,98762.56
2022-08-19T15:56:19.171Z,98762.28
2022-08-19T15:59:04.912Z,98771.22
2022-08-19T16:01:40.477Z,98762.28
2022-08-19T16:04:26.734Z,98757.25
2022-08-19T16:06:58.009Z,98766.47
2022-08-19T16:09:29.074Z,98759.38
2022-08-19T16:11:59.647Z,98763.50
2022-08-19T16:14:29.466Z,98755.47
2022-08-19T16:16:57.065Z,98744.91
2022-08-19T16:19:24.839Z,98755.00
2022-08-19T16:21:53.003Z,98755.06
2022-08-19T16:24:21.981Z,98754.44
2022-08-19T16:26:49.543Z,98755.56
2022-08-19T16:29:27.738Z,98759.75
2022-08-19T16:32:02.811Z,98743.19
2022-08-19T16:34:30.604Z,98757.94
2022-08-19T16:36:57.725Z,98749.75
2022-08-19T16:41:03.794Z,98752.44
2022-08-19T16:43:34.925Z,98758.28
2022-08-19T16:46:02.558Z,98760.56
2022-08-19T16:48:31.330Z,98765.97
2022-08-19T16:51:00.552Z,98762.34
2022-08-19T16:53:29.128Z,98758.06
2022-08-19T16:55:59.732Z,98760.09
2022-08-19T16:58:29.664Z,98773.38
2022-08-19T17:01:03.733Z,98772.00
2022-08-19T17:03:36.524Z,98770.41
2022-08-19T17:06:20.336Z,98773.81
2022-08-19T17:08:50.318Z,98777.75
2022-08-19T17:11:19.626Z,98780.25
2022-08-19T17:13:48.433Z,98776.44
2022-08-19T17:16:18.150Z,98784.91
2022-08-19T17:18:45.943Z,98778.38
2022-08-19T17:21:13.311Z,98784.28
2022-08-19T17:23:43.709Z,98786.44
2022-08-19T17:26:18.035Z,98791.53
2022-08-19T17:28:49.839Z,98782.59
2022-08-19T17:31:21.650Z,98790.16
2022-08-19T17:33:49.884Z,98808.38
2022-08-19T17:36:19.291Z,98797.31
2022-08-19T17:38:46.673Z,98809.00
2022-08-19T17:41:14.016Z,98805.16
2022-08-19T17:43:43.929Z,98809.84
2022-08-19T17:46:19.570Z,98814.47
2022-08-19T17:48:52.498Z,98810.31
2022-08-19T17:51:23.540Z,98814.97
2022-08-19T17:53:53.327Z,98811.06
2022-08-19T17:56:21.726Z,98824.22
2022-08-19T17:59:00.775Z,98828.88
2022-08-19T18:01:44.067Z,98799.28
2022-08-19T18:04:18.835Z,98830.47
2022-08-19T18:06:53.095Z,98833.97
2022-08-19T18:09:41.878Z,98840.66
2022-08-19T18:12:12.869Z,98830.34
2022-08-19T18:14:41.394Z,98828.97
2022-08-19T18:17:12.559Z,98841.75
2022-08-19T18:19:42.697Z,98848.91
2022-08-19T18:22:30.779Z,98845.28
2022-08-19T18:24:58.874Z,98851.63
2022-08-19T18:27:27.892Z,98846.13
2022-08-19T18:29:59.853Z,98851.22
2022-08-19T18:32:38.800Z,98860.47
2022-08-19T18:35:30.117Z,98858.19
2022-08-19T18:38:21.408Z,98859.03
2022-08-19T18:41:11.281Z,98861.59
2022-08-19T18:43:58.676Z,98863.22
2022-08-19T18:46:44.946Z,98860.44
2022-08-19T18:49:17.569Z,98864.06
2022-08-19T18:51:44.879Z,98854.63
2022-08-19T18:54:12.696Z,98851.88
2022-08-19T18:56:43.868Z,98858.06
2022-08-19T18:59:12.108Z,98864.59
2022-08-19T19:01:46.811Z,98861.13
2022-08-19T19:04:14.310Z,98862.00
2022-08-19T19:06:42.714Z,98872.88
2022-08-19T19:09:18.058Z,98867.13
2022-08-19T19:11:50.327Z,98864.56
2022-08-19T19:14:47.713Z,98876.31
2022-08-19T19:17:14.491Z,98869.31
2022-08-19T19:19:43.117Z,98873.00
2022-08-19T19:22:13.248Z,98877.94
2022-08-19T19:24:45.023Z,98871.72
2022-08-19T19:27:14.992Z,98877.50
2022-08-19T19:29:45.016Z,98872.00
2022-08-19T19:32:25.645Z,98882.44
2022-08-19T19:34:53.218Z,98867.91
2022-08-19T19:37:20.499Z,98865.97
2022-08-19T19:39:48.264Z,98882.72
2022-08-19T19:42:21.331Z,98894.00
2022-08-19T19:44:52.181Z,98887.88
2022-08-19T19:47:24.535Z,98896.91
2022-08-19T19:50:13.156Z,98895.47
2022-08-19T19:52:40.750Z,98897.25
2022-08-19T19:55:09.720Z,98892.50
2022-08-19T19:57:39.433Z,98889.31
2022-08-19T20:00:09.426Z,98891.78
2022-08-19T20:02:36.690Z,98888.34
2022-08-19T20:05:04.411Z,98888.91
2022-08-19T20:07:50.720Z,98903.06
2022-08-19T20:10:18.272Z,98891.16
2022-08-19T20:12:45.343Z,98896.00
2022-08-19T20:15:13.209Z,98894.88
2022-08-19T20:17:42.497Z,98893.84
2022-08-19T20:20:11.834Z,98896.16
2022-08-19T20:22:40.152Z,98906.28
2022-08-19T20:25:08.893Z,98894.69
2022-08-19T20:27:40.140Z,98908.03
2022-08-19T20:30:13.801Z,98908.19
2022-08-19T20:32:47.371Z,98905.09
2022-08-19T20:35:18.468Z,98898.41
2022-08-19T20:37:45.525Z,98900.28
2022-08-19T20:40:14.621Z,98903.81
2022-08-19T20:42:43.378Z,98907.31
2022-08-19T20:45:32.149Z,98898.06
2022-08-19T20:48:04.437Z,98904.69
2022-08-19T20:50:35.329Z,98910.03
2022-08-19T20:53:12.800Z,98861.78
2022-08-19T20:55:40.334Z,98907.41
2022-08-19T20:58:10.186Z,98909.16
2022-08-19T21:00:37.527Z,98901.69
2022-08-19T21:03:05.233Z,98912.84
2022-08-19T21:05:32.660Z,98912.47
2022-08-19T21:07:59.940Z,98913.34
2022-08-19T21:10:27.598Z,98907.84
2022-08-19T21:12:55.566Z,98914.69
2022-08-19T21:15:24.696Z,98919.53
2022-08-19T21:17:52.042Z,98915.94
2022-08-19T21:20:19.703Z,98903.09
2022-08-19T21:22:46.851Z,98908.31
2022-08-19T21:25:15.544Z,98903.94
2022-08-19T21:27:43.034Z,98897.19
2022-08-19T21:30:11.124Z,98913.97
2022-08-19T21:32:38.364Z,98905.28
2022-08-19T21:35:05.831Z,98905.72
2022-08-19T21:37:36.688Z,98903.41
2022-08-19T21:40:04.651Z,98906.75
2022-08-19T21:42:32.031Z,98910.34
2022-08-19T21:45:00.066Z,98912.81
2022-08-19T21:47:27.353Z,98897.63
2022-08-19T21:49:54.925Z,98895.69
2022-08-19T21:52:26.430Z,98912.09
2022-08-19T21:54:55.536Z,98910.13
2022-08-19T21:57:24.640Z,98895.31
2022-08-19T21:59:52.894Z,98905.34
2022-08-19T22:02:21.298Z,98898.53
2022-08-19T22:04:52.579Z,98894.50
2022-08-19T22:07:21.465Z,98896.91
2022-08-19T22:09:50.027Z,98903.72
2022-08-19T22:12:32.479Z,98884.69
2022-08-19T22:15:01.756Z,98904.63
2022-08-19T22:17:31.582Z,98896.28
2022-08-19T22:19:59.056Z,98897.91
2022-08-19T22:22:29.760Z,98894.44
2022-08-19T22:25:05.666Z,98902.06
2022-08-19T22:27:33.011Z,98892.81
2022-08-19T22:30:00.151Z,98889.63
2022-08-19T22:32:28.654Z,98891.59
2022-08-19T22:34:59.231Z,98884.44
2022-08-19T22:37:27.551Z,98884.06
2022-08-19T22:39:55.265Z,98877.69
2022-08-19T22:42:23.007Z,98867.28
2022-08-19T22:44:50.328Z,98866.94
2022-08-19T22:47:18.248Z,98861.78
2022-08-19T22:49:45.516Z,98876.97
2022-08-19T22:52:17.739Z,98872.97
2022-08-19T22:54:51.523Z,98873.38
2022-08-19T22:57:20.013Z,98837.44
2022-08-19T22:59:49.017Z,98870.16
2022-08-19T23:02:24.706Z,98877.03
2022-08-19T23:04:52.723Z,98879.84
2022-08-19T23:07:23.521Z,98866.22
2022-08-19T23:09:51.312Z,98873.09
2022-08-19T23:12:28.299Z,98860.34
2022-08-19T23:14:55.671Z,98860.72
2022-08-19T23:17:23.356Z,98866.31
2022-08-19T23:19:50.815Z,98865.91
2022-08-19T23:22:18.606Z,98865.13
2022-08-19T23:24:46.014Z,98864.31
2022-08-19T23:27:31.953Z,98851.50
2022-08-19T23:30:18.202Z,98863.50
2022-08-19T23:32:46.446Z,98845.88
2022-08-19T23:35:13.588Z,98852.28
2022-08-19T23:37:40.947Z,98848.31
2022-08-19T23:40:09.022Z,98850.31
2022-08-19T23:42:41.580Z,98843.94
2022-08-19T23:45:10.033Z,98842.72
2022-08-19T23:47:37.954Z,98853.97
2022-08-19T23:50:09.205Z,98847.19
2022-08-19T23:52:53.236Z,98848.81
2022-08-19T23:55:24.377Z,98849.63
2022-08-19T23:57:52.038Z,98847.22
